Time;durP1;ratioP1;P1;durP2;ratioP2;P2;SDS_P1;SDS_P2;PMS_P1;PMS_P2;Temp;Humidity;BMP_temperature;BMP_pressure;BME280_temperature;BME280_humidity;BME280_pressure;Samples;Min_cycle;Max_cycle;Signal;HPM_P1;HPM_P2
2023/05/27 03:18:38;;;;;;;14.67;13.13;;;12.70;99.90;;;;;;5118941;23;20497;-74
2023/05/27 03:21:05;;;;;;;17.27;15.97;;;12.70;99.90;;;;;;5029356;28;20452;-72
2023/05/27 03:23:32;;;;;;;17.40;13.33;;;12.70;99.90;;;;;;5032475;28;20445;-72
2023/05/27 03:25:58;;;;;;;15.10;13.83;;;12.70;99.90;;;;;;5033649;28;20441;-72
2023/05/27 03:28:25;;;;;;;14.03;12.93;;;12.60;99.90;;;;;;5033209;28;20453;-72
2023/05/27 03:30:56;;;;;;;15.50;13.80;;;12.60;99.90;;;;;;5033369;28;20444;-73
2023/05/27 03:33:23;;;;;;;18.60;13.17;;;12.60;99.90;;;;;;5032908;28;20756;-74
2023/05/27 03:35:51;;;;;;;15.93;14.50;;;12.60;99.90;;;;;;5032994;28;20452;-73
2023/05/27 03:38:17;;;;;;;13.47;12.50;;;12.60;99.90;;;;;;5033133;28;20453;-73
2023/05/27 03:40:44;;;;;;;14.63;13.33;;;12.60;99.90;;;;;;5033266;28;20471;-73
2023/05/27 03:43:11;;;;;;;18.20;15.67;;;12.50;99.90;;;;;;5033099;28;20812;-74
2023/05/27 03:45:38;;;;;;;14.33;13.10;;;12.50;99.90;;;;;;5032994;28;20740;-74
2023/05/27 03:48:05;;;;;;;15.73;14.20;;;12.60;99.90;;;;;;5032730;28;20460;-74
2023/05/27 03:50:34;;;;;;;17.40;12.90;;;12.70;99.90;;;;;;5032945;28;20491;-72
2023/05/27 03:53:02;;;;;;;20.60;15.70;;;12.70;99.90;;;;;;5033316;28;20488;-73
2023/05/27 03:55:28;;;;;;;14.23;12.93;;;12.70;99.90;;;;;;5033304;28;20886;-74
2023/05/27 03:57:55;;;;;;;13.80;12.50;;;12.80;99.90;;;;;;5032694;28;20448;-74
2023/05/27 04:00:22;;;;;;;13.20;12.00;;;12.80;99.90;;;;;;5032886;28;20461;-72
2023/05/27 04:02:48;;;;;;;13.67;12.63;;;13.00;99.90;;;;;;5032486;28;20448;-72
2023/05/27 04:05:16;;;;;;;15.70;14.23;;;13.00;99.90;;;;;;5032760;28;20460;-74
2023/05/27 04:07:43;;;;;;;16.57;14.93;;;13.00;99.90;;;;;;5033275;28;20449;-72
2023/05/27 04:10:11;;;;;;;16.40;15.00;;;13.00;99.90;;;;;;5032337;28;20456;-73
2023/05/27 04:12:39;;;;;;;14.60;13.40;;;13.10;99.90;;;;;;5032264;28;20793;-74
2023/05/27 04:15:08;;;;;;;14.97;13.57;;;13.10;99.90;;;;;;5032278;28;20532;-74
2023/05/27 04:17:35;;;;;;;15.83;14.37;;;13.20;99.90;;;;;;5032167;28;21049;-74
2023/05/27 04:20:02;;;;;;;16.47;14.77;;;13.20;99.90;;;;;;5032684;28;20445;-74
2023/05/27 04:22:35;;;;;;;15.97;13.57;;;13.30;99.90;;;;;;5032190;28;20472;-74
2023/05/27 04:25:01;;;;;;;14.97;13.67;;;13.30;99.90;;;;;;5032382;28;20457;-74
2023/05/27 04:27:29;;;;;;;16.33;13.17;;;13.40;99.90;;;;;;5032323;28;20452;-74
2023/05/27 04:29:56;;;;;;;15.00;13.77;;;13.50;99.90;;;;;;5032237;28;20449;-74
2023/05/27 04:32:23;;;;;;;14.70;13.03;;;13.70;99.90;;;;;;5031852;28;20702;-74
2023/05/27 04:34:50;;;;;;;14.00;12.80;;;14.00;99.90;;;;;;5031127;28;20453;-72
2023/05/27 04:37:19;;;;;;;14.93;13.57;;;14.20;99.90;;;;;;5032081;28;20448;-72
2023/05/27 04:39:46;;;;;;;13.33;11.83;;;14.50;99.90;;;;;;5032008;28;20475;-74
2023/05/27 04:42:15;;;;;;;13.67;12.37;;;14.80;99.90;;;;;;5032155;28;20511;-74
2023/05/27 04:44:43;;;;;;;12.87;11.80;;;15.10;99.90;;;;;;5031880;28;20452;-73
2023/05/27 04:47:10;;;;;;;14.00;12.70;;;15.40;99.90;;;;;;5031737;28;20456;-73
2023/05/27 04:49:37;;;;;;;14.50;13.07;;;15.60;99.90;;;;;;5031760;28;20465;-73
2023/05/27 04:52:06;;;;;;;13.93;12.83;;;15.80;99.90;;;;;;5031692;28;20990;-73
2023/05/27 04:54:33;;;;;;;13.50;12.50;;;16.10;99.90;;;;;;5031491;28;20998;-73
2023/05/27 04:57:00;;;;;;;13.33;12.20;;;16.40;99.90;;;;;;5031806;28;20457;-74
2023/05/27 04:59:35;;;;;;;13.67;12.67;;;16.70;99.90;;;;;;5031841;28;20460;-73
2023/05/27 05:02:21;;;;;;;12.70;11.20;;;16.90;99.90;;;;;;5031680;28;20452;-74
2023/05/27 05:04:49;;;;;;;15.60;12.40;;;16.90;99.90;;;;;;5031525;28;20520;-74
2023/05/27 05:07:17;;;;;;;14.73;13.30;;;17.20;99.90;;;;;;5031604;28;20456;-74
2023/05/27 05:09:44;;;;;;;15.40;14.10;;;17.50;99.60;;;;;;5031692;28;20453;-74
2023/05/27 05:12:10;;;;;;;15.30;12.53;;;17.50;99.20;;;;;;5031115;28;20457;-75
2023/05/27 05:14:37;;;;;;;13.60;12.30;;;17.70;98.80;;;;;;5033888;28;20491;-73
2023/05/27 05:17:05;;;;;;;15.00;12.87;;;17.90;98.20;;;;;;5035848;28;20834;-74
2023/05/27 05:19:32;;;;;;;14.03;12.60;;;18.20;97.80;;;;;;5031569;28;20452;-75
2023/05/27 05:21:58;;;;;;;12.90;11.60;;;18.30;97.30;;;;;;5031633;28;20453;-76
2023/05/27 05:24:25;;;;;;;17.90;14.10;;;18.40;97.10;;;;;;5031241;28;20457;-74
2023/05/27 05:26:52;;;;;;;14.60;13.00;;;18.60;96.50;;;;;;5031043;28;20461;-75
2023/05/27 05:29:18;;;;;;;13.93;12.90;;;18.90;96.20;;;;;;5031120;28;20460;-74
2023/05/27 05:31:45;;;;;;;15.17;12.50;;;19.00;95.80;;;;;;5031384;28;20459;-74
2023/05/27 05:34:13;;;;;;;12.97;11.87;;;19.30;94.90;;;;;;5030986;28;20480;-74
2023/05/27 05:36:40;;;;;;;14.17;12.80;;;19.50;94.90;;;;;;5030858;28;20460;-75
2023/05/27 05:39:07;;;;;;;14.17;11.87;;;19.70;93.70;;;;;;5030748;28;20978;-74
2023/05/27 05:41:33;;;;;;;14.23;13.13;;;19.60;93.70;;;;;;5030713;28;20460;-73
2023/05/27 05:44:00;;;;;;;15.23;13.70;;;19.80;93.30;;;;;;5031115;28;20466;-75
2023/05/27 05:46:27;;;;;;;15.07;13.73;;;19.60;93.40;;;;;;5030713;28;20453;-76
2023/05/27 05:48:53;;;;;;;14.63;13.47;;;19.80;93.10;;;;;;5030677;28;20448;-77
2023/05/27 05:51:21;;;;;;;12.53;11.50;;;20.00;92.90;;;;;;5030902;28;20453;-77
2023/05/27 05:53:48;;;;;;;13.50;12.20;;;20.10;92.80;;;;;;5030516;28;21025;-75
2023/05/27 05:56:15;;;;;;;15.70;14.20;;;20.30;92.50;;;;;;5030862;28;20814;-77
2023/05/27 05:58:41;;;;;;;13.83;12.70;;;20.50;92.30;;;;;;5030568;28;20456;-75
2023/05/27 06:01:08;;;;;;;16.23;13.03;;;21.00;92.10;;;;;;5030295;28;20460;-75
2023/05/27 06:03:35;;;;;;;13.07;11.97;;;21.30;91.00;;;;;;5030154;28;20441;-75
2023/05/27 06:06:02;;;;;;;13.90;12.90;;;21.50;90.40;;;;;;5030262;28;20455;-76
2023/05/27 06:08:30;;;;;;;14.00;12.80;;;21.40;90.00;;;;;;5030595;28;20449;-76
2023/05/27 06:10:57;;;;;;;13.80;12.60;;;21.40;90.00;;;;;;5030546;28;20448;-75
2023/05/27 06:13:23;;;;;;;13.27;12.13;;;21.60;89.50;;;;;;5030201;28;20495;-76
2023/05/27 06:15:50;;;;;;;12.30;11.40;;;21.80;89.00;;;;;;5029921;28;20469;-75
2023/05/27 06:18:17;;;;;;;13.20;11.90;;;21.70;87.60;;;;;;5029967;28;20476;-75
2023/05/27 06:20:44;;;;;;;13.00;12.20;;;21.90;87.20;;;;;;5030323;28;20453;-75
2023/05/27 06:23:11;;;;;;;14.00;12.53;;;22.40;85.50;;;;;;5030201;28;20448;-75
2023/05/27 06:25:39;;;;;;;15.40;14.00;;;22.60;84.30;;;;;;5029901;28;20464;-75
2023/05/27 06:28:06;;;;;;;14.83;13.93;;;22.50;85.30;;;;;;5029985;28;20456;-74
2023/05/27 06:30:33;;;;;;;14.80;13.30;;;23.00;84.30;;;;;;5030135;28;20453;-74
2023/05/27 06:32:59;;;;;;;15.37;13.60;;;23.40;80.70;;;;;;5030170;28;20767;-75
2023/05/27 06:35:26;;;;;;;15.10;13.60;;;23.30;79.90;;;;;;5029848;28;20955;-75
2023/05/27 06:37:53;;;;;;;13.93;12.90;;;23.60;79.40;;;;;;5028330;28;20461;-74
2023/05/27 06:40:19;;;;;;;14.60;13.30;;;23.20;79.30;;;;;;5029628;28;20463;-74
2023/05/27 06:42:48;;;;;;;14.87;13.50;;;22.90;78.80;;;;;;5029895;28;20445;-76
2023/05/27 06:45:15;;;;;;;15.20;13.80;;;22.40;79.40;;;;;;5029978;28;20987;-74
2023/05/27 06:47:41;;;;;;;15.03;13.73;;;22.70;80.90;;;;;;5029600;28;20441;-75
2023/05/27 06:50:09;;;;;;;14.90;13.50;;;22.90;78.30;;;;;;5029572;28;20449;-75
2023/05/27 06:52:35;;;;;;;14.00;11.83;;;23.00;77.90;;;;;;5029664;28;20453;-75
2023/05/27 06:55:02;;;;;;;15.03;13.83;;;23.10;78.20;;;;;;5029642;28;20487;-75
2023/05/27 06:57:29;;;;;;;15.67;14.43;;;23.40;78.20;;;;;;5029446;28;20448;-75
2023/05/27 06:59:57;;;;;;;15.23;13.90;;;24.00;76.70;;;;;;5029715;28;20453;-74
2023/05/27 07:02:24;;;;;;;14.20;13.00;;;23.50;76.30;;;;;;5029365;28;20476;-74
2023/05/27 07:04:53;;;;;;;15.77;14.40;;;23.90;76.60;;;;;;5029665;28;20792;-75
2023/05/27 07:07:20;;;;;;;14.63;13.53;;;24.50;74.90;;;;;;5029345;28;20552;-74
2023/05/27 07:09:47;;;;;;;14.93;13.60;;;24.70;73.40;;;;;;5029643;28;20445;-74
2023/05/27 07:12:13;;;;;;;13.60;12.50;;;24.70;72.60;;;;;;5029689;28;20445;-74
2023/05/27 07:14:40;;;;;;;15.37;14.10;;;24.30;72.00;;;;;;5029247;28;20496;-75
2023/05/27 07:17:38;;;;;;;15.03;14.00;;;23.60;73.70;;;;;;5029080;28;20908;-75
2023/05/27 07:20:05;;;;;;;16.20;15.00;;;23.70;74.80;;;;;;5022299;28;20832;-75
2023/05/27 07:22:32;;;;;;;15.63;14.00;;;23.90;72.90;;;;;;5027096;28;20445;-75
2023/05/27 07:24:59;;;;;;;17.70;13.70;;;23.50;74.10;;;;;;5029244;28;20441;-75
2023/05/27 07:27:25;;;;;;;16.63;15.50;;;23.70;75.20;;;;;;5028707;28;20452;-75
2023/05/27 07:29:53;;;;;;;16.63;15.43;;;24.30;73.40;;;;;;5029062;28;20456;-75
2023/05/27 07:32:21;;;;;;;15.00;13.87;;;24.10;72.30;;;;;;5029005;28;20845;-76
2023/05/27 07:34:50;;;;;;;15.97;14.73;;;24.20;72.90;;;;;;5029012;28;20572;-75
2023/05/27 07:37:16;;;;;;;14.90;14.13;;;24.70;72.20;;;;;;5029180;28;20464;-75
2023/05/27 07:39:43;;;;;;;15.27;14.03;;;24.60;71.70;;;;;;5029430;28;20449;-76
2023/05/27 07:42:10;;;;;;;15.97;14.30;;;25.00;71.70;;;;;;5028948;28;20452;-75
2023/05/27 07:44:36;;;;;;;16.03;15.00;;;25.10;70.30;;;;;;5029027;28;20954;-76
2023/05/27 07:47:03;;;;;;;15.47;14.37;;;25.50;69.70;;;;;;5028662;28;20753;-75
2023/05/27 07:49:30;;;;;;;14.77;13.50;;;25.10;70.10;;;;;;5029241;28;20453;-76
2023/05/27 07:51:58;;;;;;;17.47;15.60;;;25.40;69.50;;;;;;5028810;28;20816;-76
2023/05/27 07:54:26;;;;;;;15.90;14.50;;;26.00;67.90;;;;;;5028831;28;20492;-76
2023/05/27 07:56:53;;;;;;;17.47;16.27;;;25.70;68.60;;;;;;5028911;28;20746;-76
2023/05/27 07:59:20;;;;;;;15.63;14.63;;;26.50;66.90;;;;;;5029109;28;20452;-76
2023/05/27 08:01:46;;;;;;;16.00;14.90;;;27.20;65.80;;;;;;5028736;28;20949;-75
2023/05/27 08:04:13;;;;;;;18.90;17.60;;;27.60;64.30;;;;;;5029073;28;20782;-75
2023/05/27 08:06:40;;;;;;;16.50;15.33;;;27.30;62.80;;;;;;5028623;28;20456;-75
2023/05/27 08:09:08;;;;;;;16.87;15.83;;;27.50;62.80;;;;;;5029354;28;20496;-75
2023/05/27 08:11:35;;;;;;;22.63;15.90;;;27.70;61.90;;;;;;5032363;28;20453;-75
2023/05/27 08:14:01;;;;;;;16.60;15.70;;;27.10;62.90;;;;;;5032190;28;20488;-75
2023/05/27 08:16:28;;;;;;;16.10;15.00;;;26.70;64.00;;;;;;5032084;28;20476;-75
2023/05/27 08:18:55;;;;;;;15.93;15.00;;;26.50;63.10;;;;;;5031922;28;20452;-74
2023/05/27 08:21:21;;;;;;;15.77;14.77;;;26.30;63.80;;;;;;5031827;28;20746;-75
2023/05/27 08:23:48;;;;;;;15.90;15.00;;;26.70;64.10;;;;;;5030110;28;20460;-75
2023/05/27 08:26:16;;;;;;;16.57;15.47;;;27.20;61.80;;;;;;5032157;28;20445;-75
2023/05/27 08:28:43;;;;;;;16.40;15.20;;;27.30;61.20;;;;;;5032009;28;20945;-75
2023/05/27 08:31:10;;;;;;;16.67;15.67;;;28.00;61.10;;;;;;5031721;28;20453;-75
2023/05/27 08:33:36;;;;;;;16.87;15.47;;;28.00;59.80;;;;;;5031700;28;20744;-75
2023/05/27 08:36:03;;;;;;;17.70;16.23;;;28.50;59.20;;;;;;5031486;28;20456;-74
2023/05/27 08:38:30;;;;;;;17.53;16.03;;;28.80;58.10;;;;;;5031833;28;20449;-75
2023/05/27 08:40:57;;;;;;;15.00;14.00;;;27.90;58.40;;;;;;5031729;28;20452;-75
2023/05/27 08:43:25;;;;;;;15.17;14.13;;;28.40;58.60;;;;;;5030045;28;20456;-75
2023/05/27 08:45:52;;;;;;;15.87;14.77;;;28.50;58.20;;;;;;5031823;28;20452;-75
2023/05/27 08:48:19;;;;;;;17.03;15.93;;;29.10;57.60;;;;;;5031839;28;20457;-75
2023/05/27 08:50:46;;;;;;;16.87;15.67;;;28.60;57.70;;;;;;5031712;28;20468;-75
2023/05/27 08:53:14;;;;;;;17.17;16.07;;;28.60;58.00;;;;;;5028525;28;20445;-75
2023/05/27 08:55:42;;;;;;;15.53;14.60;;;28.40;58.30;;;;;;5031445;28;20520;-75
2023/05/27 08:58:09;;;;;;;16.43;15.13;;;28.70;58.10;;;;;;5029454;28;20950;-76
2023/05/27 09:00:37;;;;;;;17.27;16.00;;;28.50;57.80;;;;;;5031522;28;20460;-75
2023/05/27 09:03:04;;;;;;;17.20;15.93;;;28.50;57.90;;;;;;5029860;28;20457;-75
2023/05/27 09:05:31;;;;;;;16.13;15.13;;;28.30;58.40;;;;;;5031362;28;20449;-76
2023/05/27 09:07:58;;;;;;;15.47;14.57;;;27.80;58.70;;;;;;5031585;28;20452;-75
2023/05/27 09:10:24;;;;;;;17.87;16.40;;;27.80;58.70;;;;;;5030857;28;20465;-76
2023/05/27 09:12:51;;;;;;;16.57;15.43;;;28.20;58.80;;;;;;5029509;28;20553;-75
2023/05/27 09:15:18;;;;;;;16.30;15.27;;;28.50;57.70;;;;;;5030601;28;20499;-75
2023/05/27 09:17:47;;;;;;;17.90;16.40;;;28.40;57.50;;;;;;5030168;28;20477;-75
2023/05/27 09:20:14;;;;;;;17.93;16.37;;;28.20;58.70;;;;;;5030732;28;20452;-75
2023/05/27 09:22:41;;;;;;;16.70;15.50;;;28.30;58.30;;;;;;5030674;28;20448;-75
2023/05/27 09:25:09;;;;;;;15.43;14.53;;;28.00;58.60;;;;;;5030526;28;20476;-75
2023/05/27 09:27:36;;;;;;;16.97;15.70;;;27.90;58.60;;;;;;5030682;28;20457;-75
2023/05/27 09:30:10;;;;;;;16.43;15.43;;;28.10;58.10;;;;;;5030325;28;20453;-75
2023/05/27 09:32:37;;;;;;;19.10;17.70;;;28.10;58.10;;;;;;5030412;28;20470;-75
2023/05/27 09:35:08;;;;;;;17.47;16.37;;;28.10;57.90;;;;;;5030087;28;20492;-75
2023/05/27 09:37:35;;;;;;;16.80;15.63;;;27.70;58.50;;;;;;5030286;28;20453;-75
2023/05/27 09:40:06;;;;;;;15.93;15.13;;;27.40;59.00;;;;;;5030353;28;20460;-75
2023/05/27 09:42:40;;;;;;;17.53;16.17;;;27.90;58.80;;;;;;5030404;28;20534;-75
2023/05/27 09:45:09;;;;;;;16.23;15.07;;;28.10;58.30;;;;;;5030356;28;20485;-76
2023/05/27 09:47:39;;;;;;;17.33;16.10;;;28.40;58.10;;;;;;5029974;28;20461;-75
2023/05/27 09:50:09;;;;;;;19.17;17.73;;;28.40;57.20;;;;;;5029880;28;20465;-76
2023/05/27 09:52:37;;;;;;;19.40;18.10;;;28.60;58.00;;;;;;5029913;28;20938;-76
2023/05/27 09:55:06;;;;;;;18.50;17.60;;;29.40;57.40;;;;;;5029899;28;20512;-75
2023/05/27 09:57:34;;;;;;;17.70;16.50;;;29.30;55.70;;;;;;5030169;28;20457;-76
2023/05/27 10:00:02;;;;;;;17.60;16.50;;;29.70;55.90;;;;;;5030095;28;20461;-76
2023/05/27 10:02:30;;;;;;;18.53;16.87;;;30.60;54.20;;;;;;5030175;28;20457;-76
2023/05/27 10:04:59;;;;;;;18.40;17.10;;;29.90;54.50;;;;;;5030015;28;20930;-76
2023/05/27 10:07:27;;;;;;;18.93;16.97;;;29.70;54.90;;;;;;5029695;28;20989;-76
2023/05/27 10:09:54;;;;;;;17.30;16.20;;;30.00;55.00;;;;;;5029667;28;20461;-76
2023/05/27 10:12:21;;;;;;;17.83;16.53;;;30.20;54.10;;;;;;5029647;28;20465;-75
2023/05/27 10:14:48;;;;;;;16.77;15.77;;;30.20;54.50;;;;;;5029364;28;20488;-76
2023/05/27 10:17:15;;;;;;;18.97;17.83;;;30.00;54.10;;;;;;5029665;28;20496;-76
2023/05/27 10:19:56;;;;;;;17.17;16.20;;;30.30;53.80;;;;;;5029610;28;20519;-76
2023/05/27 10:22:23;;;;;;;17.50;16.47;;;31.30;53.70;;;;;;5029543;28;20453;-75
2023/05/27 10:24:53;;;;;;;18.67;17.43;;;31.50;51.60;;;;;;5029461;28;20464;-76
2023/05/27 10:27:21;;;;;;;17.27;16.40;;;30.50;52.10;;;;;;5029269;28;20464;-75
2023/05/27 10:29:59;;;;;;;18.27;16.97;;;30.20;52.80;;;;;;5029482;28;20457;-75
2023/05/27 10:32:25;;;;;;;17.97;16.93;;;29.40;53.10;;;;;;5028840;28;20461;-75
2023/05/27 10:34:55;;;;;;;17.03;16.13;;;28.80;54.50;;;;;;5029105;28;20994;-75
2023/05/27 10:37:22;;;;;;;17.50;16.50;;;28.40;54.50;;;;;;5028779;28;20456;-75
2023/05/27 10:39:59;;;;;;;19.70;18.40;;;28.40;55.40;;;;;;5028360;28;20461;-75
2023/05/27 10:42:27;;;;;;;15.83;15.03;;;29.40;55.00;;;;;;5028582;28;20560;-75
2023/05/27 10:45:05;;;;;;;16.20;15.20;;;28.80;54.70;;;;;;5028326;28;20475;-76
2023/05/27 10:47:36;;;;;;;18.30;17.20;;;29.60;54.50;;;;;;5028566;28;20526;-76
2023/05/27 10:50:11;;;;;;;18.90;17.80;;;30.60;53.40;;;;;;5028201;28;20464;-75
2023/05/27 10:52:39;;;;;;;18.77;17.67;;;29.70;52.20;;;;;;5028485;28;20985;-74
2023/05/27 10:55:08;;;;;;;16.87;15.80;;;29.20;53.30;;;;;;5028198;28;20497;-75
2023/05/27 10:57:35;;;;;;;18.87;17.67;;;29.50;52.90;;;;;;5028139;28;20519;-76
2023/05/27 11:00:08;;;;;;;19.27;17.83;;;29.40;53.30;;;;;;5028422;28;20926;-75
2023/05/27 11:02:37;;;;;;;17.63;16.53;;;29.30;52.50;;;;;;5028264;28;20488;-75
2023/05/27 11:05:09;;;;;;;16.93;16.03;;;29.20;52.60;;;;;;5027982;28;20468;-76
2023/05/27 11:07:38;;;;;;;18.17;16.87;;;29.10;52.60;;;;;;5028016;28;20457;-75
2023/05/27 11:10:06;;;;;;;17.27;16.27;;;28.50;52.00;;;;;;5027902;28;20464;-76
2023/05/27 11:12:34;;;;;;;17.87;16.67;;;28.40;53.20;;;;;;5027914;28;20811;-76
2023/05/27 11:15:01;;;;;;;17.33;16.23;;;28.60;53.30;;;;;;5028044;28;20491;-75
2023/05/27 11:17:28;;;;;;;17.20;16.20;;;29.20;52.60;;;;;;5027936;28;20484;-75
2023/05/27 11:19:55;;;;;;;17.60;16.50;;;29.40;52.30;;;;;;5027987;28;20484;-75
2023/05/27 11:22:22;;;;;;;17.30;15.87;;;29.10;52.50;;;;;;5028083;28;20796;-75
2023/05/27 11:24:59;;;;;;;17.50;16.20;;;28.90;51.30;;;;;;5027922;28;20887;-75
2023/05/27 11:27:35;;;;;;;17.13;16.00;;;28.70;52.40;;;;;;5027902;28;20966;-75
2023/05/27 11:30:09;;;;;;;16.43;15.33;;;28.70;52.30;;;;;;5028172;28;20859;-75
2023/05/27 11:32:36;;;;;;;17.33;16.13;;;28.80;51.40;;;;;;5028076;28;20723;-74
2023/05/27 11:35:05;;;;;;;16.30;14.90;;;28.70;51.70;;;;;;5027577;28;20485;-75
2023/05/27 11:37:32;;;;;;;16.63;15.47;;;28.40;52.30;;;;;;5028185;28;20461;-77
2023/05/27 11:39:59;;;;;;;17.37;16.47;;;28.80;51.50;;;;;;5028114;28;20523;-78
2023/05/27 11:42:26;;;;;;;17.43;16.03;;;29.20;51.90;;;;;;5027916;28;20457;-76
2023/05/27 11:44:54;;;;;;;17.63;16.27;;;30.10;50.10;;;;;;5031255;28;20917;-76
2023/05/27 11:47:22;;;;;;;16.90;15.80;;;30.10;50.50;;;;;;5031477;28;20460;-79
2023/05/27 11:49:49;;;;;;;15.67;14.83;;;29.80;51.30;;;;;;5031506;28;20938;-78
2023/05/27 11:52:16;;;;;;;15.50;14.60;;;29.80;50.40;;;;;;5031601;28;20518;-78
2023/05/27 11:54:44;;;;;;;17.40;16.30;;;30.20;50.90;;;;;;5031625;28;20452;-76
2023/05/27 11:57:12;;;;;;;17.07;15.87;;;30.40;48.00;;;;;;5031439;28;21040;-76
2023/05/27 11:59:40;;;;;;;17.67;16.67;;;29.90;49.30;;;;;;5031399;28;20542;-76
2023/05/27 12:02:10;;;;;;;16.87;15.90;;;29.50;48.40;;;;;;5031067;28;20744;-78
2023/05/27 12:04:37;;;;;;;16.40;15.33;;;29.90;49.70;;;;;;5031314;28;20483;-75
2023/05/27 12:07:03;;;;;;;14.77;13.60;;;29.60;49.00;;;;;;5026109;28;20492;-77
2023/05/27 12:09:30;;;;;;;16.60;15.50;;;29.80;49.40;;;;;;5031403;28;20449;-78
2023/05/27 12:11:57;;;;;;;16.73;15.57;;;30.80;48.70;;;;;;5031200;28;20453;-75
2023/05/27 12:14:23;;;;;;;17.03;16.03;;;30.40;47.60;;;;;;5030881;28;20813;-76
2023/05/27 12:16:51;;;;;;;17.77;16.67;;;29.80;49.00;;;;;;5030653;28;20485;-75
2023/05/27 12:19:19;;;;;;;17.50;16.07;;;29.50;49.10;;;;;;5031103;28;20784;-76
2023/05/27 12:21:45;;;;;;;17.57;16.47;;;30.10;49.50;;;;;;5030853;28;20456;-74
2023/05/27 12:24:12;;;;;;;18.30;17.20;;;29.90;48.20;;;;;;5030930;28;20441;-76
2023/05/27 12:26:40;;;;;;;18.50;17.40;;;29.60;46.90;;;;;;5030534;28;20465;-77
2023/05/27 12:29:07;;;;;;;18.37;17.27;;;29.90;47.70;;;;;;5030849;28;20483;-75
2023/05/27 12:31:34;;;;;;;17.40;16.20;;;30.30;48.20;;;;;;5030423;28;20457;-75
2023/05/27 12:34:01;;;;;;;18.13;16.73;;;29.70;48.10;;;;;;5030724;28;20456;-75
2023/05/27 12:36:29;;;;;;;19.60;18.10;;;29.70;48.80;;;;;;5030266;28;20492;-76
2023/05/27 12:38:55;;;;;;;18.33;16.93;;;29.40;48.90;;;;;;5030709;28;20465;-74
2023/05/27 12:41:26;;;;;;;18.47;17.07;;;29.30;49.90;;;;;;5030516;28;20587;-75
2023/05/27 12:43:53;;;;;;;17.63;16.07;;;29.30;49.50;;;;;;5030212;28;20475;-74
2023/05/27 12:46:19;;;;;;;19.00;17.90;;;29.10;49.30;;;;;;5030378;28;20509;-77
2023/05/27 12:48:46;;;;;;;17.10;15.73;;;29.20;49.70;;;;;;5030396;28;20441;-77
2023/05/27 12:51:13;;;;;;;17.80;16.80;;;29.60;49.80;;;;;;5030530;28;20790;-77
2023/05/27 12:53:41;;;;;;;17.97;16.73;;;30.20;49.00;;;;;;5030266;28;20455;-78
2023/05/27 12:56:07;;;;;;;18.77;17.47;;;30.40;48.80;;;;;;5029550;28;20488;-76
2023/05/27 12:58:34;;;;;;;18.00;17.00;;;30.30;48.70;;;;;;5030144;28;20445;-78
2023/05/27 13:01:01;;;;;;;19.40;18.10;;;30.60;47.70;;;;;;5030176;28;20484;-76
2023/05/27 13:03:28;;;;;;;18.83;17.63;;;30.90;47.70;;;;;;5030105;28;20457;-76
2023/05/27 13:05:55;;;;;;;17.90;16.80;;;30.40;47.70;;;;;;5030062;28;20938;-76
2023/05/27 13:08:23;;;;;;;19.27;18.07;;;29.50;48.80;;;;;;5028210;28;20453;-77
2023/05/27 13:10:51;;;;;;;20.43;19.20;;;29.20;48.70;;;;;;5029680;28;20467;-77
2023/05/27 13:13:18;;;;;;;18.77;17.63;;;29.10;49.00;;;;;;5029812;28;20464;-77
2023/05/27 13:15:45;;;;;;;18.87;17.83;;;29.60;48.30;;;;;;5030154;28;20582;-78
2023/05/27 13:18:12;;;;;;;18.27;17.23;;;30.10;47.60;;;;;;5030460;28;20905;-78
2023/05/27 13:20:39;;;;;;;18.47;17.37;;;30.30;45.50;;;;;;5030295;28;20472;-78
2023/05/27 13:23:06;;;;;;;17.97;16.83;;;30.60;46.10;;;;;;5029668;28;20899;-78
2023/05/27 13:25:33;;;;;;;18.10;17.10;;;30.70;45.20;;;;;;5029935;28;20930;-77
2023/05/27 13:28:01;;;;;;;19.50;17.70;;;30.30;45.20;;;;;;5029925;28;20958;-76
2023/05/27 13:30:28;;;;;;;19.00;17.60;;;30.30;46.20;;;;;;5030115;28;20453;-77
2023/05/27 13:32:55;;;;;;;19.40;18.03;;;30.30;46.40;;;;;;5029824;28;20814;-77
2023/05/27 13:35:22;;;;;;;18.07;16.97;;;30.00;45.20;;;;;;5029613;28;20495;-77
2023/05/27 13:37:49;;;;;;;18.03;17.03;;;29.90;45.30;;;;;;5029285;28;20445;-75
2023/05/27 13:40:16;;;;;;;18.83;17.53;;;29.50;45.00;;;;;;5029979;28;20515;-77
2023/05/27 13:42:43;;;;;;;17.10;16.10;;;29.80;45.00;;;;;;5029876;28;20456;-77
2023/05/27 13:45:14;;;;;;;16.63;15.73;;;30.00;43.60;;;;;;5029486;28;20460;-78
2023/05/27 13:47:43;;;;;;;16.40;15.40;;;30.00;45.20;;;;;;5029553;28;20481;-77
2023/05/27 13:50:11;;;;;;;17.73;16.70;;;29.50;45.00;;;;;;5028924;28;20472;-78
2023/05/27 13:52:38;;;;;;;16.00;15.17;;;29.20;45.50;;;;;;5028181;28;20511;-77
2023/05/27 13:55:09;;;;;;;17.13;15.90;;;28.80;46.20;;;;;;5028793;28;20449;-76
2023/05/27 13:57:35;;;;;;;16.97;15.60;;;28.40;45.50;;;;;;5028755;28;20816;-77
2023/05/27 14:00:02;;;;;;;18.60;17.30;;;28.70;45.50;;;;;;5028706;28;20445;-77
2023/05/27 14:02:57;;;;;;;17.30;16.30;;;28.60;45.60;;;;;;5028906;28;20440;-78
2023/05/27 14:05:25;;;;;;;16.83;15.63;;;28.80;45.50;;;;;;5028715;28;20523;-79
2023/05/27 14:07:52;;;;;;;15.60;14.73;;;28.80;45.00;;;;;;5027407;28;20448;-73
2023/05/27 14:10:21;;;;;;;15.43;14.40;;;28.90;45.00;;;;;;5028000;28;20460;-74
2023/05/27 14:12:47;;;;;;;16.00;15.20;;;27.90;45.20;;;;;;5028236;28;20798;-75
2023/05/27 14:15:17;;;;;;;16.70;15.70;;;27.80;44.70;;;;;;5028291;28;20461;-78
2023/05/27 14:17:46;;;;;;;15.50;14.70;;;28.20;44.40;;;;;;5027809;28;21025;-78
2023/05/27 14:20:13;;;;;;;14.43;13.43;;;28.50;45.00;;;;;;5026432;28;20475;-75
2023/05/27 14:22:42;;;;;;;15.60;14.60;;;28.50;43.80;;;;;;5028421;28;20460;-76
2023/05/27 14:25:09;;;;;;;14.70;14.00;;;28.50;44.00;;;;;;5028368;28;20552;-76
2023/05/27 14:27:36;;;;;;;16.77;15.57;;;28.20;43.40;;;;;;5028403;28;20882;-76
2023/05/27 14:30:03;;;;;;;15.50;14.70;;;28.00;43.80;;;;;;5027998;28;20460;-76
2023/05/27 14:32:42;;;;;;;15.80;14.67;;;27.30;42.90;;;;;;5028533;28;20445;-75
2023/05/27 14:35:10;;;;;;;15.07;14.17;;;26.80;43.60;;;;;;5028500;28;20492;-76
2023/05/27 14:38:00;;;;;;;14.83;14.03;;;27.40;42.90;;;;;;5028106;28;20480;-76
2023/05/27 14:40:45;;;;;;;14.20;13.50;;;27.60;41.50;;;;;;5027901;28;20457;-76
2023/05/27 14:43:21;;;;;;;15.17;14.27;;;27.80;41.00;;;;;;5028182;28;20563;-77
2023/05/27 14:45:47;;;;;;;15.80;14.60;;;27.80;40.80;;;;;;5027543;28;20904;-76
2023/05/27 14:48:14;;;;;;;15.30;14.50;;;27.90;42.50;;;;;;5028301;28;20807;-76
2023/05/27 14:50:45;;;;;;;14.27;13.27;;;28.30;41.40;;;;;;5027728;28;20457;-76
2023/05/27 14:53:13;;;;;;;15.03;14.20;;;27.80;39.00;;;;;;5028173;28;20776;-76
2023/05/27 14:55:40;;;;;;;14.33;13.50;;;27.60;38.30;;;;;;5027929;28;20457;-76
2023/05/27 14:58:07;;;;;;;15.27;14.30;;;27.90;39.40;;;;;;5027934;28;20453;-76
2023/05/27 15:00:33;;;;;;;14.20;13.47;;;27.60;39.60;;;;;;5027643;28;20457;-75
2023/05/27 15:03:17;;;;;;;14.90;14.00;;;27.30;39.30;;;;;;5028158;28;20456;-76
2023/05/27 15:05:58;;;;;;;14.63;13.63;;;26.70;42.60;;;;;;5028490;28;20461;-76
2023/05/27 15:08:27;;;;;;;15.80;14.80;;;26.00;43.40;;;;;;5028070;28;20455;-76
2023/05/27 15:11:02;;;;;;;15.37;14.50;;;25.70;43.40;;;;;;5027987;28;20444;-75
2023/05/27 15:13:29;;;;;;;15.10;14.20;;;25.50;44.80;;;;;;5028402;28;20459;-75
2023/05/27 15:15:59;;;;;;;14.57;13.87;;;25.40;44.70;;;;;;5027705;28;20484;-74
2023/05/27 15:18:26;;;;;;;14.77;13.97;;;25.30;44.80;;;;;;5028979;28;20473;-77
2023/05/27 15:20:56;;;;;;;14.27;13.50;;;25.30;44.00;;;;;;5032018;28;20660;-76
2023/05/27 15:23:27;;;;;;;16.57;15.53;;;25.50;45.30;;;;;;5031899;28;20461;-76
2023/05/27 15:25:59;;;;;;;14.27;13.27;;;25.40;45.00;;;;;;5031375;28;20444;-77
2023/05/27 15:28:26;;;;;;;14.77;13.97;;;25.50;45.10;;;;;;5027405;28;20543;-75
2023/05/27 15:30:56;;;;;;;14.57;13.87;;;25.50;45.70;;;;;;5031805;28;20445;-76
2023/05/27 15:33:25;;;;;;;15.03;14.27;;;25.50;45.80;;;;;;5031772;28;20450;-75
2023/05/27 15:36:03;;;;;;;15.47;14.60;;;25.40;47.00;;;;;;5031635;28;20479;-76
2023/05/27 15:38:35;;;;;;;13.90;13.17;;;25.90;47.10;;;;;;5031893;28;20971;-76
2023/05/27 15:41:05;;;;;;;14.87;13.97;;;25.30;46.80;;;;;;5031602;28;20555;-75
2023/05/27 15:43:34;;;;;;;15.10;14.20;;;25.30;46.10;;;;;;5031682;28;20457;-75
2023/05/27 15:46:21;;;;;;;14.40;13.50;;;25.40;46.60;;;;;;5031366;28;20448;-75
2023/05/27 15:48:48;;;;;;;13.47;12.70;;;25.30;45.30;;;;;;5031261;28;20456;-75
2023/05/27 15:51:16;;;;;;;15.43;14.53;;;25.30;44.50;;;;;;5031427;28;20449;-75